Time;durP1;ratioP1;P1;durP2;ratioP2;P2;SDS_P1;SDS_P2;PMS_P1;PMS_P2;Temp;Humidity;BMP_temperature;BMP_pressure;BME280_temperature;BME280_humidity;BME280_pressure;Samples;Min_cycle;Max_cycle;Signal;HPM_P1;HPM_P2
2023/03/16 00:02:48;;;;;;;4.17;3.37;;;5.40;51.40;;;;;;6251099;28;20482;-63
2023/03/16 00:05:54;;;;;;;4.10;3.17;;;5.40;51.70;;;;;;6251581;28;20475;-64
2023/03/16 00:08:58;;;;;;;3.80;3.40;;;5.40;51.80;;;;;;6243324;28;20476;-64
2023/03/16 00:12:03;;;;;;;6.63;4.50;;;5.40;51.80;;;;;;6226449;28;20471;-64
2023/03/16 00:15:07;;;;;;;3.97;3.60;;;5.30;51.80;;;;;;6226848;28;20811;-63
2023/03/16 00:18:11;;;;;;;4.60;4.20;;;5.20;52.30;;;;;;6226724;28;20952;-63
2023/03/16 00:21:14;;;;;;;7.57;4.30;;;5.20;52.80;;;;;;6227569;28;20502;-64
2023/03/16 00:24:19;;;;;;;10.27;6.63;;;5.20;53.40;;;;;;6226602;28;20474;-64
2023/03/16 00:27:25;;;;;;;5.70;4.30;;;5.00;53.30;;;;;;6226561;28;20814;-64
2023/03/16 00:30:28;;;;;;;4.00;3.20;;;5.00;53.90;;;;;;6249386;28;20537;-64
2023/03/16 00:33:33;;;;;;;4.00;3.60;;;5.10;56.20;;;;;;6252301;28;20503;-64
2023/03/16 00:36:37;;;;;;;3.43;3.10;;;5.00;56.10;;;;;;6252811;28;20486;-64
2023/03/16 00:39:42;;;;;;;4.23;3.60;;;5.00;55.80;;;;;;6252097;28;20564;-64
2023/03/16 00:42:45;;;;;;;3.50;3.07;;;5.00;55.80;;;;;;6251200;28;20480;-64
2023/03/16 00:45:48;;;;;;;4.33;3.53;;;4.90;55.50;;;;;;6269407;28;20475;-64
2023/03/16 00:48:52;;;;;;;3.60;3.20;;;4.80;55.40;;;;;;6254489;28;20467;-64
2023/03/16 00:51:55;;;;;;;4.03;3.33;;;4.80;55.70;;;;;;6253163;28;20486;-64
2023/03/16 00:55:02;;;;;;;4.27;3.20;;;4.80;55.60;;;;;;6253019;28;20475;-64
2023/03/16 00:58:06;;;;;;;5.10;3.40;;;4.80;55.80;;;;;;6251157;28;20972;-64
2023/03/16 01:01:13;;;;;;;5.07;3.73;;;4.70;55.90;;;;;;6253241;28;20474;-65
2023/03/16 01:04:16;;;;;;;4.23;3.03;;;4.60;56.00;;;;;;6252270;28;20848;-64
2023/03/16 01:07:20;;;;;;;2.60;2.40;;;4.60;56.40;;;;;;6249948;28;20474;-64
2023/03/16 01:10:25;;;;;;;2.63;2.40;;;4.70;56.70;;;;;;6249295;28;20976;-64
2023/03/16 01:13:28;;;;;;;3.20;3.00;;;4.70;56.60;;;;;;6250688;28;20526;-64
2023/03/16 01:16:32;;;;;;;3.23;2.93;;;4.60;56.70;;;;;;6251914;28;20467;-64
2023/03/16 01:19:36;;;;;;;4.53;2.83;;;4.60;56.90;;;;;;6251746;28;20475;-64
2023/03/16 01:22:39;;;;;;;6.17;4.17;;;4.50;57.00;;;;;;6250159;28;20498;-64
2023/03/16 01:25:51;;;;;;;3.43;2.80;;;4.50;57.30;;;;;;6251257;28;20803;-64
2023/03/16 01:28:54;;;;;;;2.90;2.70;;;4.50;57.50;;;;;;6249167;28;20948;-64
2023/03/16 01:31:58;;;;;;;3.90;3.13;;;4.50;57.80;;;;;;6249527;28;20470;-64
2023/03/16 01:35:01;;;;;;;2.60;2.30;;;4.40;57.80;;;;;;6255033;28;20502;-63
2023/03/16 01:38:04;;;;;;;3.83;3.10;;;4.40;58.00;;;;;;6273674;28;20514;-63
2023/03/16 01:41:09;;;;;;;3.10;2.63;;;4.40;58.20;;;;;;6254106;28;20897;-64
2023/03/16 01:44:14;;;;;;;3.47;2.70;;;4.30;58.40;;;;;;6252577;28;20435;-64
2023/03/16 01:47:18;;;;;;;2.70;2.50;;;4.30;58.80;;;;;;6251508;28;21004;-64
2023/03/16 01:50:21;;;;;;;2.30;2.10;;;4.30;58.90;;;;;;6253155;28;20466;-64
2023/03/16 01:53:25;;;;;;;4.37;2.57;;;4.30;59.20;;;;;;6253328;28;20497;-64
2023/03/16 01:56:35;;;;;;;3.83;2.23;;;4.20;59.10;;;;;;6252343;28;20887;-64
2023/03/16 01:59:41;;;;;;;2.33;2.10;;;4.30;59.40;;;;;;6252561;28;20486;-64
2023/03/16 02:02:48;;;;;;;1.90;1.63;;;4.30;59.40;;;;;;6250321;28;20549;-64
2023/03/16 02:05:56;;;;;;;3.00;1.90;;;4.20;59.30;;;;;;6238713;28;20495;-64
2023/03/16 02:09:00;;;;;;;2.93;2.73;;;4.20;59.60;;;;;;6252346;28;20490;-64
2023/03/16 02:12:06;;;;;;;2.40;2.13;;;4.20;59.80;;;;;;6253444;28;20477;-64
2023/03/16 02:15:10;;;;;;;2.93;2.07;;;4.20;60.10;;;;;;6252082;28;20478;-64
2023/03/16 02:18:14;;;;;;;2.63;2.13;;;4.20;60.40;;;;;;6251947;28;20490;-64
2023/03/16 02:21:25;;;;;;;3.40;2.23;;;4.10;60.50;;;;;;6251944;28;20471;-64
2023/03/16 02:24:28;;;;;;;3.87;2.53;;;4.20;60.90;;;;;;6250537;28;20474;-63
2023/03/16 02:27:41;;;;;;;3.63;3.30;;;4.10;60.60;;;;;;6250854;28;20466;-64
2023/03/16 02:30:46;;;;;;;2.87;2.60;;;4.10;61.20;;;;;;6252074;28;20470;-63
2023/03/16 02:33:52;;;;;;;2.87;2.40;;;4.00;61.50;;;;;;6263453;28;20473;-64
2023/03/16 02:36:56;;;;;;;3.00;2.70;;;4.00;62.20;;;;;;6255058;28;20803;-64
2023/03/16 02:40:00;;;;;;;3.20;2.40;;;4.00;62.30;;;;;;6253995;28;20478;-64
2023/03/16 02:43:07;;;;;;;3.20;2.10;;;3.90;62.30;;;;;;6255487;28;20478;-64
2023/03/16 02:46:11;;;;;;;2.27;1.97;;;3.90;62.90;;;;;;6255284;28;20478;-64
2023/03/16 02:49:21;;;;;;;2.60;1.90;;;3.90;62.90;;;;;;6254760;28;20479;-65
2023/03/16 02:52:24;;;;;;;4.00;2.60;;;3.90;62.90;;;;;;6255137;28;20490;-64
2023/03/16 02:55:28;;;;;;;3.67;2.53;;;3.90;62.80;;;;;;6254486;28;20490;-64
2023/03/16 02:58:31;;;;;;;3.30;3.10;;;3.80;62.70;;;;;;6254625;28;20479;-64
2023/03/16 03:01:36;;;;;;;2.70;2.50;;;3.80;62.90;;;;;;6254207;28;21018;-63
2023/03/16 03:04:39;;;;;;;4.50;3.10;;;3.80;63.10;;;;;;6253976;28;20470;-64
2023/03/16 03:07:42;;;;;;;3.10;2.80;;;3.70;63.20;;;;;;6254157;28;20488;-64
2023/03/16 03:10:46;;;;;;;3.17;2.87;;;3.70;63.40;;;;;;6244390;28;20541;-63
2023/03/16 03:13:49;;;;;;;3.47;2.77;;;3.60;64.10;;;;;;6253662;28;20475;-64
2023/03/16 03:16:54;;;;;;;2.80;2.60;;;3.60;63.90;;;;;;6253180;28;20485;-64
2023/03/16 03:19:57;;;;;;;3.70;2.53;;;3.50;64.00;;;;;;6253571;28;20462;-63
2023/03/16 03:23:01;;;;;;;3.50;2.63;;;3.50;64.20;;;;;;6253075;28;20485;-64
2023/03/16 03:26:05;;;;;;;3.50;2.83;;;3.50;64.60;;;;;;6253186;28;20483;-63
2023/03/16 03:29:08;;;;;;;2.97;2.13;;;3.50;64.90;;;;;;6252999;28;20438;-64
2023/03/16 03:32:13;;;;;;;2.73;2.30;;;3.40;65.00;;;;;;6252997;28;20439;-63
2023/03/16 03:35:16;;;;;;;2.27;2.13;;;3.40;65.20;;;;;;6252725;28;20989;-63
2023/03/16 03:38:19;;;;;;;2.70;2.50;;;3.40;66.20;;;;;;6252641;28;20463;-64
2023/03/16 03:41:22;;;;;;;2.03;1.87;;;3.40;65.50;;;;;;6252956;28;20482;-64
2023/03/16 03:44:26;;;;;;;2.20;2.00;;;3.40;66.40;;;;;;6252015;28;20471;-64
2023/03/16 03:47:30;;;;;;;2.33;1.90;;;3.30;66.30;;;;;;6252606;28;20471;-63
2023/03/16 03:50:33;;;;;;;4.13;2.33;;;3.30;66.60;;;;;;6251970;28;20956;-64
2023/03/16 03:53:36;;;;;;;2.77;2.13;;;3.20;66.90;;;;;;6253593;28;20471;-64
2023/03/16 03:56:40;;;;;;;2.20;2.00;;;3.20;67.30;;;;;;6258350;28;20483;-64
2023/03/16 03:59:43;;;;;;;3.03;2.20;;;3.20;67.50;;;;;;6256988;28;20920;-64
2023/03/16 04:02:48;;;;;;;2.37;2.17;;;3.10;68.00;;;;;;6252279;28;20475;-64
2023/03/16 04:05:51;;;;;;;2.13;1.93;;;3.10;68.30;;;;;;6252566;28;20470;-64
2023/03/16 04:08:54;;;;;;;2.00;1.90;;;3.10;68.60;;;;;;6251469;28;20837;-64
2023/03/16 04:11:57;;;;;;;3.57;2.50;;;3.10;69.50;;;;;;6247475;28;20467;-65
2023/03/16 04:15:00;;;;;;;2.40;2.20;;;3.00;68.60;;;;;;6251881;28;20860;-64
2023/03/16 04:18:05;;;;;;;2.83;2.50;;;3.00;69.30;;;;;;6251654;28;20478;-64
2023/03/16 04:21:14;;;;;;;2.37;2.10;;;2.90;69.40;;;;;;6252603;28;20467;-64
2023/03/16 04:24:18;;;;;;;1.80;1.70;;;2.90;69.90;;;;;;6251387;28;20479;-62
2023/03/16 04:27:21;;;;;;;4.33;2.00;;;2.90;70.00;;;;;;6251190;28;20486;-62
2023/03/16 04:30:24;;;;;;;3.50;2.63;;;3.00;70.50;;;;;;6250955;28;20467;-62
2023/03/16 04:33:31;;;;;;;2.87;2.40;;;2.90;70.40;;;;;;6250897;28;20477;-62
2023/03/16 04:36:34;;;;;;;3.30;2.77;;;2.90;70.50;;;;;;6250655;28;20952;-62
2023/03/16 04:39:37;;;;;;;3.00;2.80;;;2.80;70.50;;;;;;6250492;28;20964;-62
2023/03/16 04:42:40;;;;;;;6.87;3.47;;;2.80;71.00;;;;;;6250467;28;20815;-62
2023/03/16 04:45:44;;;;;;;4.40;3.60;;;2.80;71.40;;;;;;6250510;28;20498;-62
2023/03/16 04:48:48;;;;;;;3.00;2.67;;;2.80;71.30;;;;;;6250727;28;20475;-62
2023/03/16 04:51:51;;;;;;;3.93;2.67;;;2.80;71.10;;;;;;6250500;28;20483;-62
2023/03/16 04:54:55;;;;;;;5.40;2.57;;;2.80;71.30;;;;;;6249973;28;20471;-61
2023/03/16 04:57:58;;;;;;;6.30;3.00;;;2.80;71.10;;;;;;6250569;28;20482;-62
2023/03/16 05:01:02;;;;;;;2.27;2.03;;;2.80;71.00;;;;;;6250885;28;20810;-62
2023/03/16 05:04:06;;;;;;;2.40;2.03;;;2.80;71.10;;;;;;6250224;28;20957;-61
2023/03/16 05:07:10;;;;;;;2.50;2.30;;;2.80;71.20;;;;;;6249868;28;20471;-62
2023/03/16 05:10:15;;;;;;;2.60;2.40;;;2.80;71.10;;;;;;6249823;28;20482;-62
2023/03/16 05:13:19;;;;;;;2.40;2.20;;;2.80;71.30;;;;;;6250452;28;20471;-62
2023/03/16 05:16:22;;;;;;;2.50;2.30;;;2.90;71.40;;;;;;6249518;28;20471;-62
2023/03/16 05:19:26;;;;;;;3.00;2.40;;;2.90;71.40;;;;;;6241337;28;20485;-62
2023/03/16 05:22:30;;;;;;;3.50;2.50;;;2.80;71.90;;;;;;6249774;28;20952;-62
2023/03/16 05:25:33;;;;;;;3.93;2.80;;;2.80;72.10;;;;;;6249606;28;20471;-62
2023/03/16 05:28:36;;;;;;;3.33;2.53;;;2.80;72.60;;;;;;6249631;28;20483;-62
2023/03/16 05:31:39;;;;;;;4.20;3.80;;;2.80;72.30;;;;;;6249892;28;20792;-63
2023/03/16 05:34:44;;;;;;;2.50;2.30;;;2.80;72.30;;;;;;6249414;28;20553;-62
2023/03/16 05:37:47;;;;;;;3.57;3.27;;;2.80;72.30;;;;;;6249503;28;20586;-62
2023/03/16 05:40:51;;;;;;;1.97;1.80;;;2.80;71.90;;;;;;6249193;28;20471;-61
2023/03/16 05:43:55;;;;;;;2.93;2.73;;;2.80;71.60;;;;;;6249105;28;20481;-61
2023/03/16 05:46:58;;;;;;;4.17;3.60;;;2.80;71.90;;;;;;6249217;28;20458;-62
2023/03/16 05:50:03;;;;;;;4.17;3.20;;;2.80;72.50;;;;;;6248458;28;20493;-62
2023/03/16 05:53:06;;;;;;;4.07;2.80;;;2.80;72.70;;;;;;6249282;28;20530;-62
2023/03/16 05:56:09;;;;;;;2.80;2.60;;;2.80;72.80;;;;;;6249314;28;20471;-62
2023/03/16 05:59:12;;;;;;;3.37;2.80;;;2.80;73.00;;;;;;6249364;28;20444;-62
2023/03/16 06:02:16;;;;;;;3.07;2.77;;;2.80;73.10;;;;;;6249118;28;20457;-61
2023/03/16 06:05:23;;;;;;;3.00;2.40;;;2.90;73.10;;;;;;6249264;28;20474;-62
2023/03/16 06:08:26;;;;;;;5.93;2.40;;;3.00;72.60;;;;;;6252100;28;20956;-61
2023/03/16 06:11:31;;;;;;;4.13;3.20;;;3.00;72.60;;;;;;6257260;28;20458;-61
2023/03/16 06:14:35;;;;;;;3.70;2.87;;;3.10;72.40;;;;;;6254142;28;20470;-61
2023/03/16 06:17:39;;;;;;;2.80;2.40;;;3.20;72.00;;;;;;6254503;28;20821;-61
2023/03/16 06:20:45;;;;;;;2.90;2.67;;;3.20;71.90;;;;;;6249670;28;20486;-61
2023/03/16 06:23:49;;;;;;;3.07;2.30;;;3.30;72.00;;;;;;6254160;28;20621;-61
2023/03/16 06:26:53;;;;;;;4.67;3.20;;;3.40;71.90;;;;;;6253682;28;20483;-62
2023/03/16 06:29:56;;;;;;;3.43;2.53;;;3.50;71.90;;;;;;6253706;28;20470;-61
2023/03/16 06:33:00;;;;;;;2.20;1.70;;;3.60;71.80;;;;;;6254032;28;20462;-62
2023/03/16 06:36:06;;;;;;;3.07;2.77;;;3.70;71.70;;;;;;6253345;28;21046;-62
2023/03/16 06:39:09;;;;;;;4.17;2.70;;;3.80;71.20;;;;;;6253405;28;20926;-62
2023/03/16 06:42:12;;;;;;;3.97;2.77;;;4.00;70.90;;;;;;6253328;28;20466;-62
2023/03/16 06:45:16;;;;;;;4.47;2.83;;;4.10;70.30;;;;;;6253168;28;20795;-62
2023/03/16 06:48:19;;;;;;;3.40;3.10;;;4.20;69.80;;;;;;6253142;28;20478;-62
2023/03/16 06:51:23;;;;;;;7.13;3.20;;;4.40;69.80;;;;;;6253161;28;20466;-62
2023/03/16 06:54:27;;;;;;;6.43;3.60;;;4.40;69.50;;;;;;6253454;28;20463;-62
2023/03/16 06:57:30;;;;;;;3.03;2.60;;;4.60;69.10;;;;;;6253073;28;20479;-62
2023/03/16 07:00:33;;;;;;;3.17;2.37;;;4.60;68.70;;;;;;6253005;28;20513;-62
2023/03/16 07:03:37;;;;;;;2.40;2.30;;;4.70;67.90;;;;;;6253020;28;20480;-62
2023/03/16 07:06:41;;;;;;;2.77;2.57;;;4.90;67.70;;;;;;6252530;28;20816;-62
2023/03/16 07:09:45;;;;;;;2.93;2.73;;;5.10;67.00;;;;;;6252804;28;20479;-62
2023/03/16 07:12:49;;;;;;;6.13;2.83;;;5.30;66.70;;;;;;6252543;28;20492;-63
2023/03/16 07:15:52;;;;;;;3.10;2.87;;;5.70;65.60;;;;;;6252434;28;20487;-62
2023/03/16 07:18:56;;;;;;;3.77;2.30;;;6.30;64.80;;;;;;6252649;28;20482;-62
2023/03/16 07:22:01;;;;;;;2.40;2.20;;;8.40;62.30;;;;;;6252079;28;20471;-62
2023/03/16 07:25:06;;;;;;;3.60;1.53;;;12.00;55.50;;;;;;6252527;28;20475;-62
2023/03/16 07:28:10;;;;;;;1.50;1.33;;;15.00;46.60;;;;;;6252310;28;20787;-63
2023/03/16 07:31:14;;;;;;;1.60;1.50;;;17.20;38.30;;;;;;6252486;28;20471;-62
2023/03/16 07:34:17;;;;;;;5.20;1.60;;;18.30;34.40;;;;;;6252130;28;20487;-63
2023/03/16 07:37:21;;;;;;;2.20;1.70;;;19.60;31.40;;;;;;6252042;28;20494;-63
2023/03/16 07:40:27;;;;;;;4.40;1.50;;;20.90;29.10;;;;;;6252079;28;20224;-63
2023/03/16 07:43:31;;;;;;;1.80;1.50;;;21.90;27.60;;;;;;6252388;28;20228;-63
2023/03/16 07:46:34;;;;;;;1.60;1.50;;;22.30;26.20;;;;;;6252051;28;20232;-63
2023/03/16 07:49:37;;;;;;;1.43;1.33;;;21.70;25.90;;;;;;6251813;28;20247;-63
2023/03/16 07:52:42;;;;;;;2.20;1.40;;;21.90;25.80;;;;;;6252153;28;20232;-63
2023/03/16 07:55:46;;;;;;;1.40;1.30;;;23.00;25.00;;;;;;6252243;28;20248;-64
2023/03/16 07:58:50;;;;;;;2.50;1.77;;;24.70;23.70;;;;;;6252864;28;20231;-63
2023/03/16 08:01:53;;;;;;;3.17;1.40;;;26.10;22.30;;;;;;6253624;28;20238;-63
2023/03/16 08:04:56;;;;;;;2.23;1.80;;;27.60;21.20;;;;;;6251525;28;20243;-63
2023/03/16 08:08:01;;;;;;;1.30;1.20;;;28.20;19.30;;;;;;6250825;28;20238;-63
2023/03/16 08:11:04;;;;;;;1.33;1.23;;;28.90;19.20;;;;;;6252402;28;20207;-63
2023/03/16 08:14:07;;;;;;;1.60;1.50;;;29.90;18.60;;;;;;6252274;28;20207;-63
2023/03/16 08:17:11;;;;;;;1.77;1.67;;;30.90;17.10;;;;;;6251670;28;20227;-63
2023/03/16 08:20:14;;;;;;;1.98;1.77;;;30.60;17.00;;;;;;6251269;28;20207;-63
2023/03/16 08:23:20;;;;;;;1.38;1.27;;;31.20;15.90;;;;;;6251618;28;20211;-63
2023/03/16 08:26:25;;;;;;;3.75;3.45;;;31.30;15.70;;;;;;6251125;28;20243;-63
2023/03/16 08:29:28;;;;;;;3.40;2.45;;;31.10;15.70;;;;;;6242846;28;20238;-63
2023/03/16 08:32:32;;;;;;;6.57;3.10;;;32.00;15.60;;;;;;6250502;28;20314;-64
2023/03/16 08:35:35;;;;;;;1.70;1.60;;;33.60;14.50;;;;;;6251636;28;20762;-64
2023/03/16 08:38:40;;;;;;;1.17;1.08;;;33.80;13.60;;;;;;6250967;28;20599;-64
2023/03/16 08:41:44;;;;;;;3.03;1.58;;;34.10;13.30;;;;;;6250081;28;20653;-64
2023/03/16 08:44:47;;;;;;;1.65;1.40;;;34.00;13.10;;;;;;6235900;28;20228;-64
2023/03/16 08:47:51;;;;;;;3.92;1.00;;;35.30;13.10;;;;;;6239019;28;20246;-67
2023/03/16 08:50:54;;;;;;;1.60;1.50;;;36.70;11.30;;;;;;6242165;28;20216;-66
2023/03/16 08:53:59;;;;;;;1.63;1.50;;;37.10;10.60;;;;;;6243833;28;20274;-65
2023/03/16 08:57:03;;;;;;;1.38;1.23;;;37.60;10.20;;;;;;6225662;28;20251;-64
2023/03/16 09:00:11;;;;;;;7.00;6.32;;;37.70;9.50;;;;;;6225890;28;20224;-65
2023/03/16 09:03:15;;;;;;;1.85;1.50;;;37.30;9.80;;;;;;6237933;28;20219;-65
2023/03/16 09:06:18;;;;;;;2.95;2.75;;;36.70;9.60;;;;;;6248926;28;20232;-64
2023/03/16 09:09:23;;;;;;;1.50;1.40;;;34.60;10.00;;;;;;6250258;28;20227;-67
2023/03/16 09:12:26;;;;;;;2.22;1.25;;;32.00;11.00;;;;;;6250966;28;20228;-66
2023/03/16 09:15:30;;;;;;;1.67;1.47;;;28.90;12.70;;;;;;6250088;28;20231;-66
2023/03/16 09:18:34;;;;;;;5.65;5.35;;;29.60;13.10;;;;;;6250286;28;20614;-68
2023/03/16 09:21:38;;;;;;;1.63;1.52;;;31.90;12.10;;;;;;6249804;28;20692;-67
2023/03/16 09:24:42;;;;;;;1.80;1.20;;;33.30;10.80;;;;;;6249963;28;20228;-65
2023/03/16 09:27:46;;;;;;;1.80;1.30;;;32.90;10.50;;;;;;6250299;28;20699;-68
2023/03/16 09:30:49;;;;;;;1.23;0.82;;;32.90;9.70;;;;;;6249390;28;20552;-67
2023/03/16 09:33:53;;;;;;;1.95;1.77;;;35.10;8.90;;;;;;6246063;28;20235;-65
2023/03/16 09:36:56;;;;;;;1.83;1.20;;;36.90;7.90;;;;;;6249799;28;20235;-66
2023/03/16 09:40:01;;;;;;;1.40;1.30;;;35.90;7.50;;;;;;6249759;28;20549;-67
2023/03/16 09:43:25;;;;;;;1.50;1.30;;;32.90;8.70;;;;;;6248759;28;20227;-65
2023/03/16 09:46:32;;;;;;;1.60;0.90;;;33.60;9.60;;;;;;6236456;28;20232;-66
2023/03/16 09:49:42;;;;;;;1.10;0.90;;;36.60;8.70;;;;;;6225426;28;20240;-66
2023/03/16 09:52:53;;;;;;;3.17;1.40;;;37.30;7.40;;;;;;6224746;28;20239;-66
2023/03/16 09:56:03;;;;;;;1.30;1.20;;;37.80;7.10;;;;;;6224840;28;20235;-67
2023/03/16 09:59:12;;;;;;;1.67;1.30;;;39.60;6.80;;;;;;6224958;28;20873;-66
2023/03/16 10:02:34;;;;;;;1.63;1.23;;;40.10;6.20;;;;;;6225133;28;20207;-66
2023/03/16 10:05:39;;;;;;;1.17;0.98;;;41.30;5.60;;;;;;6224348;28;20243;-67
2023/03/16 10:08:45;;;;;;;1.27;0.90;;;41.10;4.90;;;;;;6224961;28;20228;-67
2023/03/16 10:11:53;;;;;;;1.30;1.20;;;40.50;4.90;;;;;;6225116;28;20240;-68
2023/03/16 10:15:03;;;;;;;1.60;0.95;;;39.60;5.30;;;;;;6224887;28;20530;-65
2023/03/16 10:18:14;;;;;;;1.20;0.98;;;40.30;5.00;;;;;;6224602;28;20247;-68
2023/03/16 10:21:19;;;;;;;1.95;0.93;;;40.00;5.30;;;;;;6224513;28;20231;-67
2023/03/16 10:24:34;;;;;;;2.00;1.90;;;40.60;5.40;;;;;;6224804;28;20239;-67
2023/03/16 10:27:40;;;;;;;1.45;1.00;;;39.90;5.20;;;;;;6223995;28;20241;-65
2023/03/16 10:30:44;;;;;;;4.18;2.20;;;39.30;5.70;;;;;;6224081;28;20655;-67
2023/03/16 10:33:51;;;;;;;0.85;0.68;;;38.90;5.70;;;;;;6224207;28;20236;-67
2023/03/16 10:36:55;;;;;;;1.45;1.00;;;37.10;5.60;;;;;;6224280;28;20244;-66
2023/03/16 10:39:59;;;;;;;1.58;1.10;;;37.70;5.10;;;;;;6224411;28;20721;-66
2023/03/16 10:43:09;;;;;;;1.25;0.90;;;39.00;5.50;;;;;;6229529;28;20224;-65
2023/03/16 10:46:12;;;;;;;1.63;0.82;;;41.20;4.60;;;;;;6245559;28;20233;-66
2023/03/16 10:49:22;;;;;;;1.45;1.35;;;41.60;4.00;;;;;;6242119;28;20228;-65
2023/03/16 10:52:33;;;;;;;1.15;1.05;;;39.90;3.90;;;;;;6246799;28;20662;-65
2023/03/16 10:55:44;;;;;;;1.27;0.93;;;39.80;4.70;;;;;;6249897;28;20565;-65
2023/03/16 10:58:49;;;;;;;2.20;1.20;;;39.80;4.60;;;;;;6247581;28;20277;-65
2023/03/16 11:01:52;;;;;;;1.92;1.73;;;41.20;4.70;;;;;;6251798;28;20234;-65
2023/03/16 11:04:56;;;;;;;1.52;1.10;;;40.30;4.40;;;;;;6251608;28;20228;-65
2023/03/16 11:08:02;;;;;;;1.38;1.27;;;37.80;5.50;;;;;;6253082;28;20250;-64
2023/03/16 11:11:12;;;;;;;3.42;1.30;;;37.20;5.50;;;;;;6253195;28;20208;-65
2023/03/16 11:14:21;;;;;;;1.60;1.15;;;38.20;5.40;;;;;;6253324;28;20217;-65
2023/03/16 11:17:34;;;;;;;2.05;0.98;;;38.50;5.10;;;;;;6253303;28;20236;-65
2023/03/16 11:20:37;;;;;;;2.95;1.40;;;39.10;5.00;;;;;;6253094;28;20227;-64
2023/03/16 11:23:48;;;;;;;1.50;1.38;;;37.20;4.80;;;;;;6253402;28;20235;-64
2023/03/16 11:26:55;;;;;;;1.10;1.00;;;36.10;5.50;;;;;;6253420;28;20677;-65
2023/03/16 11:30:08;;;;;;;3.38;1.30;;;35.80;5.40;;;;;;6253352;28;20522;-64
2023/03/16 11:33:14;;;;;;;1.30;1.13;;;35.50;5.20;;;;;;6254610;28;20645;-64
2023/03/16 11:36:34;;;;;;;2.72;1.65;;;37.00;5.40;;;;;;6254755;28;20243;-65
2023/03/16 11:39:44;;;;;;;1.85;1.75;;;37.90;5.10;;;;;;6252839;28;20569;-65
2023/03/16 11:42:58;;;;;;;2.50;2.30;;;38.10;4.60;;;;;;6243615;28;20239;-64
2023/03/16 11:46:11;;;;;;;2.58;2.38;;;39.10;4.50;;;;;;6252792;28;20262;-64
2023/03/16 11:49:38;;;;;;;3.53;3.22;;;38.40;4.70;;;;;;6252184;28;20258;-65
2023/03/16 11:52:50;;;;;;;2.40;2.30;;;39.40;4.20;;;;;;6250947;28;20231;-64
2023/03/16 11:56:06;;;;;;;2.22;2.00;;;39.40;4.20;;;;;;6250593;28;20240;-65
2023/03/16 11:59:51;;;;;;;2.15;1.67;;;35.70;5.10;;;;;;6251555;28;20216;-65
2023/03/16 12:03:49;;;;;;;3.35;1.85;;;33.30;5.90;;;;;;6180265;28;20230;-64
2023/03/16 12:07:13;;;;;;;1.90;1.35;;;32.50;6.70;;;;;;6251218;28;20321;-65
2023/03/16 12:10:25;;;;;;;2.25;1.20;;;35.60;5.70;;;;;;6251969;28;20227;-64
2023/03/16 12:13:43;;;;;;;1.65;1.30;;;37.10;4.90;;;;;;6251934;28;20239;-65
2023/03/16 12:16:51;;;;;;;1.40;1.02;;;38.60;4.50;;;;;;6251910;28;20682;-65
2023/03/16 12:20:02;;;;;;;1.38;1.27;;;39.90;4.10;;;;;;6251604;28;20362;-65
2023/03/16 12:23:11;;;;;;;1.33;1.10;;;40.40;3.90;;;;;;6251625;28;20297;-65
2023/03/16 12:26:16;;;;;;;2.42;1.27;;;37.80;4.40;;;;;;6249944;28;20234;-67
2023/03/16 12:29:29;;;;;;;1.80;1.65;;;37.80;4.30;;;;;;6233350;28;20200;-68
2023/03/16 12:32:44;;;;;;;1.50;1.30;;;38.80;4.10;;;;;;6238343;28;20303;-67
2023/03/16 12:35:55;;;;;;;5.40;5.00;;;40.30;3.60;;;;;;6231998;28;20373;-66
2023/03/16 12:39:04;;;;;;;8.75;8.25;;;40.80;3.50;;;;;;6251223;28;20231;-66
2023/03/16 12:42:23;;;;;;;8.85;8.05;;;38.30;4.10;;;;;;6251400;28;20305;-67
2023/03/16 12:45:34;;;;;;;5.80;4.32;;;38.40;3.80;;;;;;6232150;28;20598;-67
2023/03/16 12:48:40;;;;;;;2.08;1.48;;;38.50;4.00;;;;;;6226365;28;20721;-66
2023/03/16 12:51:47;;;;;;;1.27;1.05;;;39.50;3.60;;;;;;6225680;28;20342;-65
2023/03/16 12:54:51;;;;;;;2.10;1.40;;;39.80;3.30;;;;;;6225475;28;20255;-65
2023/03/16 12:58:01;;;;;;;1.48;1.10;;;40.00;3.40;;;;;;6226036;28;20242;-65
2023/03/16 13:01:11;;;;;;;2.55;1.00;;;40.80;3.30;;;;;;6228274;28;20232;-66
2023/03/16 13:04:18;;;;;;;2.00;1.60;;;41.90;3.20;;;;;;6250453;28;20293;-64
2023/03/16 13:07:25;;;;;;;1.80;1.13;;;40.50;3.20;;;;;;6250139;28;20707;-66
2023/03/16 13:10:28;;;;;;;1.67;1.15;;;39.70;3.40;;;;;;6250094;28;20541;-64
2023/03/16 13:13:33;;;;;;;1.23;1.00;;;39.10;3.40;;;;;;6250335;28;20666;-65
2023/03/16 13:16:37;;;;;;;1.30;1.17;;;38.90;3.80;;;;;;6250129;28;20242;-65
2023/03/16 13:19:43;;;;;;;1.70;1.33;;;39.90;3.70;;;;;;6249813;28;20231;-64
2023/03/16 13:22:51;;;;;;;1.60;1.00;;;37.90;3.30;;;;;;6250447;28;20239;-64
2023/03/16 13:26:13;;;;;;;4.65;2.53;;;37.90;3.90;;;;;;6249668;28;20660;-64
2023/03/16 13:29:25;;;;;;;1.38;1.20;;;38.60;3.50;;;;;;6249135;28;20227;-64
2023/03/16 13:32:32;;;;;;;1.83;1.23;;;39.20;3.40;;;;;;6250090;28;20525;-63
2023/03/16 13:35:39;;;;;;;2.67;1.38;;;39.40;3.40;;;;;;6243519;28;20346;-64
2023/03/16 13:38:55;;;;;;;3.33;1.83;;;39.40;3.30;;;;;;6225296;28;20228;-64
2023/03/16 13:42:00;;;;;;;1.92;1.50;;;38.10;3.60;;;;;;6225558;28;20243;-65
2023/03/16 13:45:13;;;;;;;4.50;4.10;;;35.40;4.30;;;;;;6225198;28;20322;-64
2023/03/16 13:48:18;;;;;;;5.22;3.10;;;32.50;5.40;;;;;;6224882;28;20236;-63
2023/03/16 13:51:22;;;;;;;3.17;2.80;;;29.70;6.30;;;;;;6220678;28;20243;-63
2023/03/16 13:54:29;;;;;;;3.40;2.67;;;25.90;7.80;;;;;;6225134;28;20451;-64
2023/03/16 13:57:37;;;;;;;2.37;1.13;;;23.00;9.70;;;;;;6231690;28;20247;-63
2023/03/16 14:00:44;;;;;;;4.33;2.27;;;21.50;10.70;;;;;;6246426;28;20232;-64
2023/03/16 14:03:47;;;;;;;1.77;1.30;;;19.60;11.60;;;;;;6242289;28;20252;-63
2023/03/16 14:06:56;;;;;;;1.40;1.30;;;18.50;12.40;;;;;;6248163;28;20682;-63
2023/03/16 14:10:00;;;;;;;2.67;1.33;;;17.40;13.10;;;;;;6247977;28;20228;-64
2023/03/16 14:13:09;;;;;;;3.17;1.17;;;17.20;13.60;;;;;;6229338;28;20479;-64
2023/03/16 14:16:17;;;;;;;1.53;1.23;;;17.00;14.00;;;;;;6224877;28;20480;-64
2023/03/16 14:19:24;;;;;;;3.13;1.90;;;16.80;14.10;;;;;;6225104;28;20359;-63
2023/03/16 14:22:32;;;;;;;1.43;1.33;;;16.40;14.30;;;;;;6224736;28;20482;-63
2023/03/16 14:25:37;;;;;;;1.73;1.00;;;15.80;14.90;;;;;;6227902;28;20433;-63
2023/03/16 14:28:41;;;;;;;1.60;1.50;;;15.50;15.00;;;;;;6249571;28;20247;-63
2023/03/16 14:31:44;;;;;;;1.13;1.03;;;15.20;15.50;;;;;;6254814;28;20467;-64
2023/03/16 14:34:49;;;;;;;4.20;1.27;;;14.50;16.00;;;;;;6257423;28;20474;-62
2023/03/16 14:37:55;;;;;;;2.50;1.20;;;14.40;16.40;;;;;;6237107;28;20228;-62
2023/03/16 14:41:07;;;;;;;2.37;1.10;;;14.20;16.00;;;;;;6235897;28;20502;-63
2023/03/16 14:44:20;;;;;;;2.13;1.40;;;14.10;16.80;;;;;;6235373;28;20454;-64
2023/03/16 14:47:28;;;;;;;1.50;1.33;;;13.90;16.80;;;;;;6231470;28;20462;-63
2023/03/16 14:50:32;;;;;;;1.70;1.50;;;13.90;16.90;;;;;;6231751;28;20468;-62
2023/03/16 14:53:36;;;;;;;1.80;1.67;;;13.40;17.40;;;;;;6227891;28;20944;-61
2023/03/16 14:56:41;;;;;;;2.30;1.10;;;13.10;17.70;;;;;;6230622;28;20458;-63
2023/03/16 14:59:45;;;;;;;1.17;1.07;;;13.00;18.00;;;;;;6232583;28;20251;-61
2023/03/16 15:02:57;;;;;;;2.70;1.77;;;12.80;18.60;;;;;;6235220;28;20478;-63
2023/03/16 15:06:02;;;;;;;1.20;1.10;;;12.80;18.80;;;;;;6231624;28;20984;-63
2023/03/16 15:09:06;;;;;;;1.30;1.20;;;12.80;18.90;;;;;;6230832;28;20468;-62
2023/03/16 15:12:14;;;;;;;1.20;1.10;;;12.60;18.80;;;;;;6230138;28;20957;-61
2023/03/16 15:15:21;;;;;;;3.83;1.43;;;12.50;18.80;;;;;;6229873;28;20555;-63
2023/03/16 15:18:24;;;;;;;1.63;1.20;;;12.60;19.00;;;;;;6229840;28;21000;-61
2023/03/16 15:21:31;;;;;;;1.60;1.50;;;12.60;18.90;;;;;;6230823;28;20467;-62
2023/03/16 15:24:34;;;;;;;1.70;1.10;;;12.60;18.80;;;;;;6229701;28;20510;-62
2023/03/16 15:27:40;;;;;;;1.87;1.47;;;12.60;18.80;;;;;;6229877;28;20480;-61
2023/03/16 15:30:44;;;;;;;1.30;1.20;;;12.60;18.90;;;;;;6230671;28;20476;-63
2023/03/16 15:33:48;;;;;;;1.27;1.13;;;12.70;18.70;;;;;;6229324;28;20471;-64
2023/03/16 15:36:51;;;;;;;1.57;1.00;;;12.80;18.60;;;;;;6238957;28;20475;-61
2023/03/16 15:39:54;;;;;;;1.17;1.17;;;12.70;18.50;;;;;;6243780;28;20467;-61
2023/03/16 15:42:59;;;;;;;1.43;1.30;;;12.60;18.40;;;;;;6251997;28;20482;-65
2023/03/16 15:46:03;;;;;;;1.63;1.43;;;12.50;18.50;;;;;;6244569;28;20464;-64
2023/03/16 15:49:07;;;;;;;2.27;2.10;;;12.50;18.70;;;;;;6227559;28;20495;-61
2023/03/16 15:52:23;;;;;;;11.90;10.80;;;12.50;18.80;;;;;;6227498;28;20808;-62
2023/03/16 15:55:33;;;;;;;5.10;4.70;;;12.40;19.10;;;;;;6242633;28;20518;-62
2023/03/16 15:58:45;;;;;;;3.77;3.57;;;12.30;19.00;;;;;;6252687;28;20474;-62
2023/03/16 16:01:48;;;;;;;3.83;1.97;;;12.00;19.40;;;;;;6252161;28;20785;-63
2023/03/16 16:04:51;;;;;;;1.97;1.87;;;12.00;19.50;;;;;;6252528;28;20471;-61
2023/03/16 16:07:55;;;;;;;2.13;1.73;;;11.80;19.70;;;;;;6252342;28;20486;-60
2023/03/16 16:10:58;;;;;;;1.80;1.70;;;11.80;19.80;;;;;;6251624;28;20502;-61
2023/03/16 16:14:03;;;;;;;1.97;1.87;;;11.70;20.20;;;;;;6251736;28;20471;-61
2023/03/16 16:17:11;;;;;;;2.90;2.30;;;11.70;20.10;;;;;;6251239;28;20455;-63
2023/03/16 16:20:20;;;;;;;2.23;1.40;;;11.60;19.90;;;;;;6253487;28;20423;-65